Charlottetown, Canada
Current Conditions -  °F | °C
As of 8:00 PM on Saturday 22 Nov 2014 (Local Time) from CYYG Reporting Station
Light Snow Light Snow  
Wind Chill: -5°   Ceiling: 2800
Heat Index:   Visibility: 3mi
Dew Point: -3°   Wind: 13mph
Humidity: 80%   Direction: 230°SW
Pressure: 29.84"   Gusts: 22mph
Location:  46.24°N, 63.13°W
Report Text: CYYG 230000Z 23011G19KT 3SM -SN OVC028 00/M03 A2984 RMK SN2SC6 SLP109
Loading
Personal Weather Stations






























Interactive Weather Map New forecast layout! Learn more

10-Day Weather Forecast

Advertisements
Track Severe Weather on mobile